createdAt,value
2023-04-10T05:50:18.670Z,100480.71
2023-04-10T05:56:49.007Z,100490.45
2023-04-10T05:59:52.579Z,100495.70
2023-04-10T06:02:40.106Z,100500.64
2023-04-10T06:05:10.811Z,100503.54
2023-04-10T06:07:43.166Z,100507.80
2023-04-10T06:10:14.158Z,100509.13
2023-04-10T06:12:43.222Z,100514.46
2023-04-10T06:15:12.939Z,100514.73
2023-04-10T06:17:44.322Z,100525.90
2023-04-10T06:20:12.908Z,100518.74
2023-04-10T06:22:42.145Z,100520.88
2023-04-10T06:25:11.565Z,100527.69
2023-04-10T06:27:40.483Z,100521.84
2023-04-10T06:30:11.425Z,100524.23
2023-04-10T06:32:40.871Z,100526.09
2023-04-10T06:35:09.889Z,100525.73
2023-04-10T06:37:40.070Z,100524.46
2023-04-10T06:40:10.485Z,100526.14
2023-04-10T06:42:38.904Z,100523.73
2023-04-10T06:45:23.379Z,100521.13
2023-04-10T06:47:51.823Z,100523.15
2023-04-10T06:50:23.475Z,100518.38
2023-04-10T06:52:53.296Z,100529.09
2023-04-10T06:55:21.697Z,100524.27
2023-04-10T06:58:09.705Z,100521.23
2023-04-10T07:00:38.840Z,100518.66
2023-04-10T07:03:08.098Z,100524.61
2023-04-10T07:05:36.438Z,100522.36
2023-04-10T07:08:04.971Z,100520.70
2023-04-10T07:10:34.390Z,100516.98
2023-04-10T07:13:03.101Z,100518.48
2023-04-10T07:15:46.110Z,100521.14
2023-04-10T07:18:18.736Z,100519.17
2023-04-10T07:20:48.723Z,100514.36
2023-04-10T07:23:22.859Z,100510.12
2023-04-10T07:25:52.261Z,100510.76
2023-04-10T07:28:20.684Z,100511.68
2023-04-10T07:30:51.922Z,100507.33
2023-04-10T07:33:21.623Z,100509.00
2023-04-10T07:35:50.088Z,100509.67
2023-04-10T07:38:19.274Z,100504.38
2023-04-10T07:40:49.594Z,100503.64
2023-04-10T07:43:17.764Z,100497.59
2023-04-10T07:45:47.413Z,100505.52
2023-04-10T07:48:15.968Z,100509.23
2023-04-10T07:50:52.998Z,100504.64
2023-04-10T07:53:21.668Z,100509.84
2023-04-10T07:55:49.855Z,100503.21
2023-04-10T07:58:18.196Z,100498.41
2023-04-10T08:00:46.488Z,100493.71
2023-04-10T08:03:16.006Z,100488.63
2023-04-10T08:05:44.507Z,100491.17
2023-04-10T08:08:12.823Z,100492.78
2023-04-10T08:10:42.988Z,100487.20
2023-04-10T08:13:11.783Z,100480.83
2023-04-10T08:15:40.563Z,100490.67
2023-04-10T08:18:09.496Z,100474.38
2023-04-10T08:20:40.195Z,100475.36
2023-04-10T08:23:19.801Z,100476.40
2023-04-10T08:25:48.770Z,100478.73
2023-04-10T08:28:17.286Z,100470.08
2023-04-10T08:30:45.557Z,100466.90
2023-04-10T08:33:14.120Z,100468.19
2023-04-10T08:35:48.052Z,100463.75
2023-04-10T08:38:16.151Z,100463.95
2023-04-10T08:40:44.932Z,100460.70
2023-04-10T08:43:13.846Z,100451.73
2023-04-10T08:45:43.711Z,100452.17
2023-04-10T08:48:11.869Z,100452.23
2023-04-10T08:50:43.087Z,100455.75
2023-04-10T08:53:13.541Z,100446.31
2023-04-10T08:55:44.896Z,100446.77
2023-04-10T08:58:15.473Z,100442.23
2023-04-10T09:00:43.665Z,100438.61
2023-04-10T09:03:15.275Z,100435.97
2023-04-10T09:05:43.740Z,100432.92
2023-04-10T09:08:13.764Z,100434.65
2023-04-10T09:10:42.837Z,100432.29
2023-04-10T09:13:14.473Z,100433.06
2023-04-10T09:15:57.261Z,100431.73
2023-04-10T09:18:52.437Z,100426.36
2023-04-10T09:21:22.164Z,100422.95
2023-04-10T09:23:59.978Z,100416.09
2023-04-10T09:26:29.859Z,100425.76
2023-04-10T09:29:06.165Z,100416.80
2023-04-10T09:31:36.032Z,100414.89
2023-04-10T09:34:22.516Z,100421.63
2023-04-10T09:36:58.175Z,100419.19
2023-04-10T09:39:43.971Z,100416.05
2023-04-10T09:42:13.059Z,100408.21
2023-04-10T09:44:41.959Z,100398.77
2023-04-10T09:47:14.958Z,100392.60
2023-04-10T09:49:52.490Z,100404.11
2023-04-10T09:52:29.813Z,100397.70
2023-04-10T09:54:59.772Z,100401.98
2023-04-10T09:57:30.267Z,100393.62
2023-04-10T10:00:08.404Z,100386.81
2023-04-10T10:02:41.606Z,100391.93
2023-04-10T10:05:11.044Z,100379.36
2023-04-10T10:07:42.013Z,100389.91
2023-04-10T10:10:10.407Z,100386.34
2023-04-10T10:12:48.917Z,100389.57
2023-04-10T10:15:38.922Z,100373.98
2023-04-10T10:18:28.562Z,100383.13
2023-04-10T10:20:59.406Z,100383.18
2023-04-10T10:23:35.404Z,100368.69
2023-04-10T10:26:06.302Z,100384.48
2023-04-10T10:28:34.932Z,100373.11
2023-04-10T10:31:03.765Z,100363.13
2023-04-10T10:33:32.277Z,100377.47
2023-04-10T10:36:00.907Z,100371.98
2023-04-10T10:38:31.807Z,100363.45
2023-04-10T10:41:10.827Z,100362.10
2023-04-10T10:43:48.434Z,100364.61
2023-04-10T10:46:34.234Z,100358.77
2023-04-10T10:49:02.557Z,100356.42
2023-04-10T10:51:48.006Z,100362.23
2023-04-10T10:54:32.034Z,100351.83
2023-04-10T10:57:09.371Z,100345.73
2023-04-10T10:59:44.025Z,100339.21
2023-04-10T11:02:18.667Z,100338.17
2023-04-10T11:04:48.259Z,100338.10
2023-04-10T11:07:16.922Z,100333.75
2023-04-10T11:09:53.704Z,100341.80
2023-04-10T11:12:30.609Z,100340.17
2023-04-10T11:14:59.750Z,100340.41
2023-04-10T11:17:49.019Z,100347.48
2023-04-10T11:20:18.579Z,100330.98
2023-04-10T11:23:20.553Z,100319.89
2023-04-10T11:25:49.562Z,100316.95
2023-04-10T11:28:33.397Z,100322.21
2023-04-10T11:31:23.137Z,100315.16
2023-04-10T11:33:58.752Z,100306.09
2023-04-10T11:36:27.778Z,100299.45
2023-04-10T11:39:09.258Z,100303.92
2023-04-10T11:41:39.301Z,100316.64
2023-04-10T11:44:12.271Z,100309.95
2023-04-10T11:46:46.992Z,100315.49
2023-04-10T11:49:26.558Z,100310.86
2023-04-10T11:51:55.723Z,100291.19
2023-04-10T11:54:28.346Z,100300.85
2023-04-10T11:57:01.349Z,100294.76
2023-04-10T11:59:33.562Z,100292.02
2023-04-10T12:02:09.879Z,100284.96
2023-04-10T12:04:38.483Z,100279.75
2023-04-10T12:07:07.998Z,100279.42
2023-04-10T12:09:36.561Z,100286.96
2023-04-10T12:12:12.582Z,100283.66
2023-04-10T12:14:42.495Z,100280.95
2023-04-10T12:17:11.740Z,100266.46
2023-04-10T12:19:53.878Z,100263.29
2023-04-10T12:22:22.271Z,100267.31
2023-04-10T12:24:53.738Z,100269.41
2023-04-10T12:27:26.991Z,100264.90
2023-04-10T12:29:56.386Z,100257.61
2023-04-10T12:32:25.783Z,100249.21
2023-04-10T12:34:58.398Z,100254.59
2023-04-10T12:37:47.931Z,100250.61
2023-04-10T12:40:17.109Z,100245.81
2023-04-10T12:42:45.476Z,100236.09
2023-04-10T12:45:14.282Z,100247.46
2023-04-10T12:47:47.287Z,100243.64
2023-04-10T12:50:19.266Z,100241.58
2023-04-10T12:53:11.785Z,100239.78
2023-04-10T12:55:40.450Z,100226.84
2023-04-10T12:58:31.115Z,100221.25
2023-04-10T13:01:05.691Z,100224.71
2023-04-10T13:03:34.703Z,100222.17
2023-04-10T13:06:03.768Z,100223.07
2023-04-10T13:08:32.869Z,100226.08
2023-04-10T13:11:03.736Z,100217.08
2023-04-10T13:13:33.630Z,100216.04
2023-04-10T13:16:01.924Z,100218.67
2023-04-10T13:18:30.393Z,100215.48
2023-04-10T13:20:58.773Z,100207.35
2023-04-10T13:23:27.732Z,100219.48
2023-04-10T13:25:56.918Z,100211.39
2023-04-10T13:28:25.863Z,100201.15
2023-04-10T13:30:54.097Z,100202.95
2023-04-10T13:33:25.009Z,100203.52
2023-04-10T13:35:53.389Z,100199.77
2023-04-10T13:38:22.058Z,100194.95
2023-04-10T13:40:53.816Z,100190.00
2023-04-10T13:43:22.179Z,100186.23
2023-04-10T13:45:50.381Z,100185.81
2023-04-10T13:48:24.380Z,100183.80
2023-04-10T13:50:55.566Z,100184.55
2023-04-10T13:53:23.720Z,100180.73
2023-04-10T13:55:52.943Z,100185.53
2023-04-10T13:58:22.064Z,100187.80
2023-04-10T14:00:50.556Z,100189.40
2023-04-10T14:03:20.128Z,100188.10
2023-04-10T14:05:48.602Z,100184.52
2023-04-10T14:08:18.118Z,100186.86
2023-04-10T14:10:50.847Z,100182.83
2023-04-10T14:13:18.908Z,100183.64
2023-04-10T14:15:47.158Z,100183.34
2023-04-10T14:18:18.493Z,100179.94
2023-04-10T14:20:46.779Z,100173.51
2023-04-10T14:23:18.614Z,100181.92
2023-04-10T14:25:47.953Z,100172.65
2023-04-10T14:28:19.904Z,100174.23
2023-04-10T14:30:49.181Z,100176.14
2023-04-10T14:33:22.315Z,100171.42
2023-04-10T14:35:51.108Z,100174.83
2023-04-10T14:38:19.480Z,100172.00
2023-04-10T14:40:50.320Z,100167.40
2023-04-10T14:43:19.656Z,100172.45
2023-04-10T14:45:50.396Z,100164.14
2023-04-10T14:48:21.409Z,100163.79
2023-04-10T14:50:49.744Z,100164.02
2023-04-10T14:53:18.918Z,100166.47
2023-04-10T14:55:47.088Z,100162.77
2023-04-10T14:58:15.142Z,100167.58
2023-04-10T15:00:44.559Z,100160.30
2023-04-10T15:03:12.981Z,100163.54
2023-04-10T15:05:41.464Z,100157.94
2023-04-10T15:08:10.210Z,100156.24
2023-04-10T15:10:38.396Z,100154.91
2023-04-10T15:13:07.386Z,100154.69
2023-04-10T15:15:36.903Z,100152.61
2023-04-10T15:18:05.249Z,100145.67
2023-04-10T15:20:34.681Z,100144.98
2023-04-10T15:23:03.086Z,100141.29
2023-04-10T15:25:34.440Z,100139.15
2023-04-10T15:28:03.128Z,100135.30
2023-04-10T15:30:31.753Z,100136.29
2023-04-10T15:33:01.021Z,100131.47
2023-04-10T15:35:34.374Z,100131.52
2023-04-10T15:38:03.833Z,100130.56
2023-04-10T15:40:33.211Z,100126.84
2023-04-10T15:43:01.593Z,100123.48
2023-04-10T15:45:36.215Z,100121.68
2023-04-10T15:48:04.900Z,100118.36
2023-04-10T15:50:37.184Z,100119.26
2023-04-10T15:53:05.868Z,100114.05
2023-04-10T15:55:34.277Z,100114.64
2023-04-10T15:58:03.556Z,100113.79
2023-04-10T16:00:32.051Z,100109.92
2023-04-10T16:03:00.590Z,100112.04
2023-04-10T16:05:29.058Z,100110.02
2023-04-10T16:07:57.808Z,100107.85
2023-04-10T16:10:26.192Z,100101.48
2023-04-10T16:12:56.545Z,100099.35
2023-04-10T16:15:24.842Z,100093.73
2023-04-10T16:17:53.230Z,100099.03
2023-04-10T16:20:22.382Z,100100.79
2023-04-10T16:22:51.992Z,100106.51
2023-04-10T16:25:21.737Z,100105.31
2023-04-10T16:27:51.120Z,100106.93
2023-04-10T16:30:19.704Z,100102.30
2023-04-10T16:32:51.386Z,100105.11
2023-04-10T16:35:19.749Z,100102.63
2023-04-10T16:37:48.224Z,100104.46
2023-04-10T16:40:20.262Z,100099.49
2023-04-10T16:42:49.070Z,100094.89
2023-04-10T16:45:17.470Z,100095.95
2023-04-10T16:47:46.404Z,100098.52
2023-04-10T16:50:15.378Z,100101.00
2023-04-10T16:52:45.686Z,100103.37
2023-04-10T16:55:14.195Z,100104.45
2023-04-10T16:57:42.967Z,100103.23
2023-04-10T17:00:15.594Z,100103.17
2023-04-10T17:02:44.258Z,100103.34
2023-04-10T17:05:13.806Z,100103.11
2023-04-10T17:07:45.090Z,100099.08
2023-04-10T17:10:13.992Z,100097.33
2023-04-10T17:12:43.665Z,100096.84
2023-04-10T17:15:21.792Z,100101.21
2023-04-10T17:18:04.694Z,100105.58
2023-04-10T17:20:37.372Z,100101.42
2023-04-10T17:23:05.806Z,100104.88
2023-04-10T17:25:38.573Z,100100.15
2023-04-10T17:28:07.397Z,100109.36
2023-04-10T17:30:37.288Z,100112.68
2023-04-10T17:33:05.588Z,100114.70
2023-04-10T17:35:35.102Z,100116.25
2023-04-10T17:38:03.560Z,100114.73
2023-04-10T17:40:32.660Z,100114.57
2023-04-10T17:43:02.754Z,100106.11
2023-04-10T17:45:31.034Z,100105.27
2023-04-10T17:47:59.626Z,100102.82
2023-04-10T17:50:28.675Z,100101.52
2023-04-10T17:52:57.120Z,100103.27
2023-04-10T17:55:26.849Z,100107.95
2023-04-10T17:57:58.251Z,100105.61
2023-04-10T18:00:30.364Z,100105.13
2023-04-10T18:03:01.256Z,100103.14
2023-04-10T18:05:30.545Z,100102.35
2023-04-10T18:08:00.414Z,100099.73
2023-04-10T18:10:28.897Z,100102.29
2023-04-10T18:12:58.800Z,100103.96
2023-04-10T18:15:27.313Z,100097.65
2023-04-10T18:17:57.055Z,100100.86
2023-04-10T18:20:25.537Z,100100.97
2023-04-10T18:22:53.809Z,100099.34
2023-04-10T18:25:22.353Z,100096.40
2023-04-10T18:28:13.117Z,100097.56
2023-04-10T18:30:42.019Z,100096.74
2023-04-10T18:33:11.430Z,100095.02
2023-04-10T18:35:42.358Z,100098.10
2023-04-10T18:38:10.834Z,100098.41
2023-04-10T18:40:46.349Z,100094.95
2023-04-10T18:43:15.473Z,100090.55
2023-04-10T18:45:44.676Z,100088.13
2023-04-10T18:48:12.933Z,100090.77
2023-04-10T18:50:41.281Z,100090.69
2023-04-10T18:53:11.066Z,100087.61
2023-04-10T18:55:39.599Z,100083.45
2023-04-10T18:58:07.853Z,100084.60
2023-04-10T19:00:37.506Z,100080.33
2023-04-10T19:03:07.138Z,100077.27
2023-04-10T19:05:39.005Z,100074.08
2023-04-10T19:08:07.355Z,100070.64
2023-04-10T19:10:37.603Z,100069.84
2023-04-10T19:13:12.050Z,100067.48
2023-04-10T19:15:40.673Z,100068.42
2023-04-10T19:18:09.536Z,100066.13
2023-04-10T19:20:49.373Z,100067.65
2023-04-10T19:23:22.486Z,100065.60
2023-04-10T19:25:54.802Z,100064.67
2023-04-10T19:28:23.415Z,100061.25
2023-04-10T19:31:11.669Z,100059.55
2023-04-10T19:33:41.447Z,100057.61
2023-04-10T19:36:10.056Z,100052.65
2023-04-10T19:38:41.090Z,100048.84
2023-04-10T19:41:15.844Z,100044.85
2023-04-10T19:43:45.298Z,100036.23
2023-04-10T19:46:18.910Z,100038.23
2023-04-10T19:48:49.476Z,100038.44
2023-04-10T19:51:17.829Z,100041.30
2023-04-10T19:53:46.228Z,100034.74
2023-04-10T19:56:16.040Z,100031.23
2023-04-10T19:58:47.008Z,100032.30
2023-04-10T20:01:15.823Z,100034.36
2023-04-10T20:03:47.415Z,100032.73
2023-04-10T20:06:16.243Z,100032.96
2023-04-10T20:08:45.509Z,100032.14
2023-04-10T20:11:13.789Z,100034.46
2023-04-10T20:13:41.958Z,100030.11
2023-04-10T20:16:11.258Z,100034.05
2023-04-10T20:18:40.469Z,100025.52
2023-04-10T20:21:09.470Z,100024.63
2023-04-10T20:23:39.014Z,100027.00
2023-04-10T20:26:07.472Z,100025.96
2023-04-10T20:28:35.891Z,100025.44
2023-04-10T20:31:05.295Z,100024.27
2023-04-10T20:33:34.660Z,100019.52
2023-04-10T20:36:02.896Z,100020.77
2023-04-10T20:38:31.365Z,100021.02
2023-04-10T20:40:59.480Z,100020.46
2023-04-10T20:43:28.908Z,100011.60
2023-04-10T20:45:57.522Z,100010.34
2023-04-10T20:48:25.878Z,100005.97
2023-04-10T20:50:53.952Z,100003.05
2023-04-10T20:53:22.114Z,100003.27
2023-04-10T20:55:54.311Z,100005.83
2023-04-10T20:58:23.097Z,100005.70
2023-04-10T21:00:53.132Z,100005.36
2023-04-10T21:03:23.204Z,100002.45
2023-04-10T21:05:53.737Z,99999.20
2023-04-10T21:08:23.869Z,100000.10
2023-04-10T21:10:52.315Z,99998.77
2023-04-10T21:13:20.461Z,99996.91
2023-04-10T21:15:49.763Z,99994.70
2023-04-10T21:18:18.360Z,99995.52
2023-04-10T21:20:50.402Z,99991.11
2023-04-10T21:23:18.708Z,99990.77
2023-04-10T21:25:51.820Z,99992.77
2023-04-10T21:28:22.017Z,99986.06
2023-04-10T21:30:50.301Z,99990.67
2023-04-10T21:33:18.588Z,99986.57
2023-04-10T21:35:47.118Z,99983.02
2023-04-10T21:38:16.473Z,99976.36
2023-04-10T21:40:51.748Z,99978.05
2023-04-10T21:43:20.981Z,99977.95
2023-04-10T21:45:49.344Z,99977.60
2023-04-10T21:48:19.665Z,99971.49
2023-04-10T21:50:49.340Z,99969.23
2023-04-10T21:53:17.600Z,99962.77
2023-04-10T21:55:46.207Z,99962.38
2023-04-10T21:58:14.331Z,99958.42
2023-04-10T22:00:47.160Z,99953.69
2023-04-10T22:03:16.574Z,99951.61
2023-04-10T22:05:46.003Z,99951.58
2023-04-10T22:08:15.177Z,99950.10
2023-04-10T22:10:45.629Z,99945.85
2023-04-10T22:13:30.410Z,99944.64
2023-04-10T22:16:02.186Z,99940.98
2023-04-10T22:18:31.474Z,99936.62
2023-04-10T22:21:02.123Z,99938.20
2023-04-10T22:23:31.343Z,99939.46
2023-04-10T22:26:01.149Z,99936.55
2023-04-10T22:28:30.399Z,99934.86
2023-04-10T22:30:58.783Z,99933.67
2023-04-10T22:33:27.234Z,99930.31
2023-04-10T22:35:56.801Z,99930.80
2023-04-10T22:38:25.253Z,99930.10
2023-04-10T22:40:54.983Z,99931.73
2023-04-10T22:43:23.143Z,99929.66
2023-04-10T22:45:51.440Z,99931.39
2023-04-10T22:48:20.969Z,99933.16
2023-04-10T22:50:49.215Z,99928.74
2023-04-10T22:53:19.047Z,99932.72
2023-04-10T22:55:47.472Z,99931.70
2023-04-10T22:58:15.996Z,99930.55
2023-04-10T23:00:44.492Z,99930.27
2023-04-10T23:03:12.728Z,99921.38
2023-04-10T23:05:47.078Z,99913.77
2023-04-10T23:08:15.468Z,99906.64
2023-04-10T23:10:43.733Z,99898.98
2023-04-10T23:13:12.027Z,99893.94
2023-04-10T23:15:41.148Z,99887.11
2023-04-10T23:18:09.554Z,99884.93
2023-04-10T23:20:51.138Z,99885.58
2023-04-10T23:23:20.207Z,99885.10
2023-04-10T23:25:51.757Z,99880.48
2023-04-10T23:28:22.640Z,99882.40
2023-04-10T23:30:51.001Z,99878.94
2023-04-10T23:33:19.682Z,99871.64
2023-04-10T23:35:48.489Z,99864.05
2023-04-10T23:38:16.853Z,99863.98
2023-04-10T23:40:45.221Z,99862.29
2023-04-10T23:43:13.711Z,99867.77
2023-04-10T23:45:41.996Z,99862.59
2023-04-10T23:48:15.079Z,99861.91
2023-04-10T23:50:44.692Z,99862.34
2023-04-10T23:53:14.434Z,99858.65
2023-04-10T23:55:43.224Z,99854.81
2023-04-10T23:58:11.372Z,99848.48
